Terminal Aerodrome Forecast
Issued by NWS Paducah, KY

Home | Current Version | Previous Version | Text Only | Print | Product List | Glossary On
Versions: 1 2 3 4 5 6 7 8 9 10 11 12
000
FTUS43 KPAH 291720
TAFEVV
TAF
KEVV 291720Z 2918/3018 20008KT P6SM SCT050 BKN150
     FM300000 VRB03KT P6SM SCT050 BKN150
     FM301500 20007KT P6SM SCT040 BKN100=

USA.gov is the U.S. government's official web portal to all federal, state and local government web resources and services.